sensor_id;sensor_type;location;lat;lon;timestamp;temperature;humidity
17152;DHT22;8691;50.828;4.700;2022-10-16T00:01:07;13.30;99.90
17152;DHT22;8691;50.828;4.700;2022-10-16T00:03:33;13.40;99.90
17152;DHT22;8691;50.828;4.700;2022-10-16T00:06:00;13.30;99.90
17152;DHT22;8691;50.828;4.700;2022-10-16T00:08:27;13.30;99.90
17152;DHT22;8691;50.828;4.700;2022-10-16T00:10:58;13.20;99.90
17152;DHT22;8691;50.828;4.700;2022-10-16T00:13:20;13.20;99.90
17152;DHT22;8691;50.828;4.700;2022-10-16T00:15:47;13.20;99.90
17152;DHT22;8691;50.828;4.700;2022-10-16T00:18:13;13.20;99.90
17152;DHT22;8691;50.828;4.700;2022-10-16T00:20:40;13.20;99.90
17152;DHT22;8691;50.828;4.700;2022-10-16T00:23:07;13.20;99.90
17152;DHT22;8691;50.828;4.700;2022-10-16T00:25:34;13.20;99.90
17152;DHT22;8691;50.828;4.700;2022-10-16T00:28:01;13.20;99.90
17152;DHT22;8691;50.828;4.700;2022-10-16T00:30:28;13.20;99.90
17152;DHT22;8691;50.828;4.700;2022-10-16T00:32:55;13.30;99.90
17152;DHT22;8691;50.828;4.700;2022-10-16T00:35:22;13.20;99.90
17152;DHT22;8691;50.828;4.700;2022-10-16T00:37:49;13.20;99.90
17152;DHT22;8691;50.828;4.700;2022-10-16T00:40:16;13.20;99.90
17152;DHT22;8691;50.828;4.700;2022-10-16T00:42:42;13.20;99.90
17152;DHT22;8691;50.828;4.700;2022-10-16T00:45:10;13.20;99.90
17152;DHT22;8691;50.828;4.700;2022-10-16T00:47:43;13.20;99.90
17152;DHT22;8691;50.828;4.700;2022-10-16T00:50:32;13.20;99.90
17152;DHT22;8691;50.828;4.700;2022-10-16T00:52:36;13.20;99.90
17152;DHT22;8691;50.828;4.700;2022-10-16T00:55:04;13.10;99.90
17152;DHT22;8691;50.828;4.700;2022-10-16T00:57:30;13.10;99.90
17152;DHT22;8691;50.828;4.700;2022-10-16T00:59:57;13.00;99.90
17152;DHT22;8691;50.828;4.700;2022-10-16T01:02:24;13.00;99.90
17152;DHT22;8691;50.828;4.700;2022-10-16T01:04:52;13.00;99.90
17152;DHT22;8691;50.828;4.700;2022-10-16T01:10:02;13.00;99.90
17152;DHT22;8691;50.828;4.700;2022-10-16T01:12:38;13.00;99.90
17152;DHT22;8691;50.828;4.700;2022-10-16T01:15:30;13.00;99.90
17152;DHT22;8691;50.828;4.700;2022-10-16T01:17:52;12.90;99.90
17152;DHT22;8691;50.828;4.700;2022-10-16T01:20:30;12.90;99.90
17152;DHT22;8691;50.828;4.700;2022-10-16T01:23:04;13.00;99.90
17152;DHT22;8691;50.828;4.700;2022-10-16T01:25:36;12.90;99.90
17152;DHT22;8691;50.828;4.700;2022-10-16T01:27:57;12.90;99.90
17152;DHT22;8691;50.828;4.700;2022-10-16T01:30:26;13.00;99.90
17152;DHT22;8691;50.828;4.700;2022-10-16T01:32:56;13.00;99.90
17152;DHT22;8691;50.828;4.700;2022-10-16T01:38:08;13.00;99.90
17152;DHT22;8691;50.828;4.700;2022-10-16T01:40:34;13.00;99.90
17152;DHT22;8691;50.828;4.700;2022-10-16T01:43:05;13.00;99.90
17152;DHT22;8691;50.828;4.700;2022-10-16T01:45:28;13.00;99.90
17152;DHT22;8691;50.828;4.700;2022-10-16T01:47:54;13.00;99.90
17152;DHT22;8691;50.828;4.700;2022-10-16T01:50:21;12.90;99.90
17152;DHT22;8691;50.828;4.700;2022-10-16T01:52:49;12.90;99.90
17152;DHT22;8691;50.828;4.700;2022-10-16T01:55:17;12.90;99.90
17152;DHT22;8691;50.828;4.700;2022-10-16T01:57:42;12.80;99.90
17152;DHT22;8691;50.828;4.700;2022-10-16T02:00:09;12.80;99.90
17152;DHT22;8691;50.828;4.700;2022-10-16T02:02:35;12.80;99.90
17152;DHT22;8691;50.828;4.700;2022-10-16T02:05:04;12.80;99.90
17152;DHT22;8691;50.828;4.700;2022-10-16T02:07:28;12.80;99.90
17152;DHT22;8691;50.828;4.700;2022-10-16T02:09:55;12.80;99.90
17152;DHT22;8691;50.828;4.700;2022-10-16T02:12:29;12.70;99.90
17152;DHT22;8691;50.828;4.700;2022-10-16T02:14:55;12.70;99.90
17152;DHT22;8691;50.828;4.700;2022-10-16T02:17:22;12.70;99.90
17152;DHT22;8691;50.828;4.700;2022-10-16T02:19:50;12.80;99.90
17152;DHT22;8691;50.828;4.700;2022-10-16T02:22:30;12.80;99.90
17152;DHT22;8691;50.828;4.700;2022-10-16T02:27:27;12.80;99.90
17152;DHT22;8691;50.828;4.700;2022-10-16T02:29:58;12.80;99.90
17152;DHT22;8691;50.828;4.700;2022-10-16T02:32:23;12.80;99.90
17152;DHT22;8691;50.828;4.700;2022-10-16T02:34:49;12.80;99.90
17152;DHT22;8691;50.828;4.700;2022-10-16T02:37:16;12.90;99.90
17152;DHT22;8691;50.828;4.700;2022-10-16T02:39:43;12.80;99.90
17152;DHT22;8691;50.828;4.700;2022-10-16T02:42:11;12.80;99.90
17152;DHT22;8691;50.828;4.700;2022-10-16T02:44:37;12.80;99.90
17152;DHT22;8691;50.828;4.700;2022-10-16T02:47:03;12.80;99.90
17152;DHT22;8691;50.828;4.700;2022-10-16T02:49:30;12.80;99.90
17152;DHT22;8691;50.828;4.700;2022-10-16T02:51:57;12.80;99.90
17152;DHT22;8691;50.828;4.700;2022-10-16T02:54:24;12.80;99.90
17152;DHT22;8691;50.828;4.700;2022-10-16T02:56:51;12.70;99.90
17152;DHT22;8691;50.828;4.700;2022-10-16T02:59:19;12.70;99.90
17152;DHT22;8691;50.828;4.700;2022-10-16T03:01:46;12.70;99.90
17152;DHT22;8691;50.828;4.700;2022-10-16T03:04:13;12.70;99.90
17152;DHT22;8691;50.828;4.700;2022-10-16T03:06:40;12.80;99.90
17152;DHT22;8691;50.828;4.700;2022-10-16T03:09:07;12.70;99.90
17152;DHT22;8691;50.828;4.700;2022-10-16T03:11:34;12.70;99.90
17152;DHT22;8691;50.828;4.700;2022-10-16T03:14:01;12.70;99.90
17152;DHT22;8691;50.828;4.700;2022-10-16T03:16:27;12.70;99.90
17152;DHT22;8691;50.828;4.700;2022-10-16T03:18:54;12.80;99.90
17152;DHT22;8691;50.828;4.700;2022-10-16T03:21:22;12.80;99.90
17152;DHT22;8691;50.828;4.700;2022-10-16T03:23:49;12.80;99.90
17152;DHT22;8691;50.828;4.700;2022-10-16T03:26:15;12.90;99.90
17152;DHT22;8691;50.828;4.700;2022-10-16T03:28:42;12.80;99.90
17152;DHT22;8691;50.828;4.700;2022-10-16T03:31:09;12.90;99.90
17152;DHT22;8691;50.828;4.700;2022-10-16T03:33:36;12.90;99.90
17152;DHT22;8691;50.828;4.700;2022-10-16T03:36:03;12.90;99.90
17152;DHT22;8691;50.828;4.700;2022-10-16T03:38:30;12.90;99.90
17152;DHT22;8691;50.828;4.700;2022-10-16T03:40:56;12.90;99.90
17152;DHT22;8691;50.828;4.700;2022-10-16T03:43:23;12.90;99.90
17152;DHT22;8691;50.828;4.700;2022-10-16T03:45:51;12.80;99.90
17152;DHT22;8691;50.828;4.700;2022-10-16T03:48:18;12.80;99.90
17152;DHT22;8691;50.828;4.700;2022-10-16T03:50:44;12.70;99.90
17152;DHT22;8691;50.828;4.700;2022-10-16T03:53:11;12.70;99.90
17152;DHT22;8691;50.828;4.700;2022-10-16T03:55:38;12.70;99.90
17152;DHT22;8691;50.828;4.700;2022-10-16T03:58:05;12.70;99.90
17152;DHT22;8691;50.828;4.700;2022-10-16T04:00:31;12.70;99.90
17152;DHT22;8691;50.828;4.700;2022-10-16T04:02:58;12.70;99.90
17152;DHT22;8691;50.828;4.700;2022-10-16T04:05:25;12.60;99.90
17152;DHT22;8691;50.828;4.700;2022-10-16T04:07:52;12.70;99.90
17152;DHT22;8691;50.828;4.700;2022-10-16T04:10:18;12.70;99.90
17152;DHT22;8691;50.828;4.700;2022-10-16T04:12:45;12.70;99.90
17152;DHT22;8691;50.828;4.700;2022-10-16T04:15:12;12.70;99.90
17152;DHT22;8691;50.828;4.700;2022-10-16T04:17:38;12.70;99.90
17152;DHT22;8691;50.828;4.700;2022-10-16T04:20:05;12.70;99.90
17152;DHT22;8691;50.828;4.700;2022-10-16T04:22:32;12.70;99.90
17152;DHT22;8691;50.828;4.700;2022-10-16T04:24:59;12.70;99.90
17152;DHT22;8691;50.828;4.700;2022-10-16T04:27:26;12.70;99.90
17152;DHT22;8691;50.828;4.700;2022-10-16T04:29:53;12.70;99.90
17152;DHT22;8691;50.828;4.700;2022-10-16T04:32:20;12.70;99.90
17152;DHT22;8691;50.828;4.700;2022-10-16T04:34:48;12.70;99.90
17152;DHT22;8691;50.828;4.700;2022-10-16T04:37:15;12.70;99.90
17152;DHT22;8691;50.828;4.700;2022-10-16T04:39:42;12.70;99.90
17152;DHT22;8691;50.828;4.700;2022-10-16T04:42:09;12.70;99.90
17152;DHT22;8691;50.828;4.700;2022-10-16T04:44:35;12.70;99.90
17152;DHT22;8691;50.828;4.700;2022-10-16T04:47:02;12.60;99.90
17152;DHT22;8691;50.828;4.700;2022-10-16T04:49:29;12.60;99.90
17152;DHT22;8691;50.828;4.700;2022-10-16T04:51:56;12.60;99.90
17152;DHT22;8691;50.828;4.700;2022-10-16T04:54:23;12.50;99.90
17152;DHT22;8691;50.828;4.700;2022-10-16T04:56:51;12.50;99.90
17152;DHT22;8691;50.828;4.700;2022-10-16T04:59:19;12.50;99.90
17152;DHT22;8691;50.828;4.700;2022-10-16T05:01:45;12.50;99.90
17152;DHT22;8691;50.828;4.700;2022-10-16T05:04:12;12.50;99.90
17152;DHT22;8691;50.828;4.700;2022-10-16T05:06:39;12.50;99.90
17152;DHT22;8691;50.828;4.700;2022-10-16T05:09:06;12.50;99.90
17152;DHT22;8691;50.828;4.700;2022-10-16T05:11:33;12.50;99.90
17152;DHT22;8691;50.828;4.700;2022-10-16T05:14:00;12.50;99.90
17152;DHT22;8691;50.828;4.700;2022-10-16T05:16:26;12.50;99.90
17152;DHT22;8691;50.828;4.700;2022-10-16T05:18:53;12.50;99.90
17152;DHT22;8691;50.828;4.700;2022-10-16T05:21:20;12.50;99.90
17152;DHT22;8691;50.828;4.700;2022-10-16T05:23:48;12.50;99.90
17152;DHT22;8691;50.828;4.700;2022-10-16T05:26:15;12.50;99.90
17152;DHT22;8691;50.828;4.700;2022-10-16T05:28:42;12.50;99.90
17152;DHT22;8691;50.828;4.700;2022-10-16T05:31:09;12.50;99.90
17152;DHT22;8691;50.828;4.700;2022-10-16T05:33:36;12.60;99.90
17152;DHT22;8691;50.828;4.700;2022-10-16T05:36:03;12.60;99.90
17152;DHT22;8691;50.828;4.700;2022-10-16T05:38:29;12.50;99.90
17152;DHT22;8691;50.828;4.700;2022-10-16T05:40:56;12.50;99.90
17152;DHT22;8691;50.828;4.700;2022-10-16T05:43:23;12.50;99.90
17152;DHT22;8691;50.828;4.700;2022-10-16T05:45:57;12.50;99.90
17152;DHT22;8691;50.828;4.700;2022-10-16T05:48:24;12.50;99.90
17152;DHT22;8691;50.828;4.700;2022-10-16T05:51:03;12.50;99.90
17152;DHT22;8691;50.828;4.700;2022-10-16T05:53:27;12.40;99.90
17152;DHT22;8691;50.828;4.700;2022-10-16T05:55:54;12.30;99.90
17152;DHT22;8691;50.828;4.700;2022-10-16T05:58:21;12.30;99.90
17152;DHT22;8691;50.828;4.700;2022-10-16T06:01:00;12.30;99.90
17152;DHT22;8691;50.828;4.700;2022-10-16T06:03:25;12.30;99.90
17152;DHT22;8691;50.828;4.700;2022-10-16T06:05:52;12.30;99.90
17152;DHT22;8691;50.828;4.700;2022-10-16T06:08:20;12.40;99.90
17152;DHT22;8691;50.828;4.700;2022-10-16T06:10:46;12.40;99.90
17152;DHT22;8691;50.828;4.700;2022-10-16T06:13:14;12.40;99.90
17152;DHT22;8691;50.828;4.700;2022-10-16T06:15:41;12.40;99.90
17152;DHT22;8691;50.828;4.700;2022-10-16T06:18:08;12.40;99.90
17152;DHT22;8691;50.828;4.700;2022-10-16T06:20:35;12.50;99.90
17152;DHT22;8691;50.828;4.700;2022-10-16T06:23:01;12.50;99.90
17152;DHT22;8691;50.828;4.700;2022-10-16T06:25:28;12.40;99.90
17152;DHT22;8691;50.828;4.700;2022-10-16T06:27:55;12.40;99.90
17152;DHT22;8691;50.828;4.700;2022-10-16T06:30:22;12.40;99.90
17152;DHT22;8691;50.828;4.700;2022-10-16T06:32:49;12.40;99.90
17152;DHT22;8691;50.828;4.700;2022-10-16T06:35:16;12.40;99.90
17152;DHT22;8691;50.828;4.700;2022-10-16T06:37:43;12.40;99.90
17152;DHT22;8691;50.828;4.700;2022-10-16T06:40:10;12.40;99.90
17152;DHT22;8691;50.828;4.700;2022-10-16T06:42:37;12.40;99.90
17152;DHT22;8691;50.828;4.700;2022-10-16T06:45:04;12.40;99.90
17152;DHT22;8691;50.828;4.700;2022-10-16T06:47:31;12.40;99.90
17152;DHT22;8691;50.828;4.700;2022-10-16T06:49:58;12.50;99.90
17152;DHT22;8691;50.828;4.700;2022-10-16T06:52:27;12.60;99.90
17152;DHT22;8691;50.828;4.700;2022-10-16T06:54:52;12.60;99.90
17152;DHT22;8691;50.828;4.700;2022-10-16T06:57:20;12.70;99.90
17152;DHT22;8691;50.828;4.700;2022-10-16T06:59:47;12.70;99.90
17152;DHT22;8691;50.828;4.700;2022-10-16T07:02:14;12.70;99.90
17152;DHT22;8691;50.828;4.700;2022-10-16T07:04:41;12.80;99.90
17152;DHT22;8691;50.828;4.700;2022-10-16T07:07:08;12.90;99.90
17152;DHT22;8691;50.828;4.700;2022-10-16T07:09:34;12.90;99.90
17152;DHT22;8691;50.828;4.700;2022-10-16T07:12:02;13.20;99.90
17152;DHT22;8691;50.828;4.700;2022-10-16T07:14:30;13.30;99.90
17152;DHT22;8691;50.828;4.700;2022-10-16T07:16:57;13.30;99.90
17152;DHT22;8691;50.828;4.700;2022-10-16T07:19:23;13.40;99.90
17152;DHT22;8691;50.828;4.700;2022-10-16T07:21:50;13.60;99.90
17152;DHT22;8691;50.828;4.700;2022-10-16T07:24:17;13.70;99.90
17152;DHT22;8691;50.828;4.700;2022-10-16T07:26:44;13.80;99.90
17152;DHT22;8691;50.828;4.700;2022-10-16T07:29:18;13.80;99.90
17152;DHT22;8691;50.828;4.700;2022-10-16T07:31:43;14.00;99.90
17152;DHT22;8691;50.828;4.700;2022-10-16T07:34:11;14.20;99.90
17152;DHT22;8691;50.828;4.700;2022-10-16T07:36:37;15.30;99.90
17152;DHT22;8691;50.828;4.700;2022-10-16T07:39:04;16.50;99.90
17152;DHT22;8691;50.828;4.700;2022-10-16T07:41:31;17.70;99.90
17152;DHT22;8691;50.828;4.700;2022-10-16T07:43:58;18.70;99.90
17152;DHT22;8691;50.828;4.700;2022-10-16T07:46:25;19.50;99.90
17152;DHT22;8691;50.828;4.700;2022-10-16T07:48:51;20.30;99.90
17152;DHT22;8691;50.828;4.700;2022-10-16T07:51:19;20.10;99.90
17152;DHT22;8691;50.828;4.700;2022-10-16T07:53:45;19.90;99.90
17152;DHT22;8691;50.828;4.700;2022-10-16T07:56:12;19.60;99.90
17152;DHT22;8691;50.828;4.700;2022-10-16T07:58:38;18.90;99.90
17152;DHT22;8691;50.828;4.700;2022-10-16T08:01:08;18.20;99.90
17152;DHT22;8691;50.828;4.700;2022-10-16T08:03:34;18.00;99.90
17152;DHT22;8691;50.828;4.700;2022-10-16T08:06:02;20.00;99.90
17152;DHT22;8691;50.828;4.700;2022-10-16T08:08:29;20.00;99.90
17152;DHT22;8691;50.828;4.700;2022-10-16T08:10:56;20.80;99.90
17152;DHT22;8691;50.828;4.700;2022-10-16T08:13:23;22.10;99.90
17152;DHT22;8691;50.828;4.700;2022-10-16T08:15:50;22.60;99.90
17152;DHT22;8691;50.828;4.700;2022-10-16T08:18:17;23.10;99.90
17152;DHT22;8691;50.828;4.700;2022-10-16T08:20:44;23.80;99.90
17152;DHT22;8691;50.828;4.700;2022-10-16T08:23:13;24.00;99.90
17152;DHT22;8691;50.828;4.700;2022-10-16T08:25:40;23.70;99.90
17152;DHT22;8691;50.828;4.700;2022-10-16T08:28:08;23.60;99.90
17152;DHT22;8691;50.828;4.700;2022-10-16T08:30:35;23.50;99.90
17152;DHT22;8691;50.828;4.700;2022-10-16T08:33:02;23.50;99.90
17152;DHT22;8691;50.828;4.700;2022-10-16T08:35:29;23.80;99.90
17152;DHT22;8691;50.828;4.700;2022-10-16T08:37:56;24.00;99.90
17152;DHT22;8691;50.828;4.700;2022-10-16T08:40:24;24.20;99.90
17152;DHT22;8691;50.828;4.700;2022-10-16T08:45:48;24.70;99.30
17152;DHT22;8691;50.828;4.700;2022-10-16T08:48:14;24.80;99.00
17152;DHT22;8691;50.828;4.700;2022-10-16T08:50:38;24.80;99.30
17152;DHT22;8691;50.828;4.700;2022-10-16T08:53:04;24.80;99.60
17152;DHT22;8691;50.828;4.700;2022-10-16T08:55:37;25.20;98.70
17152;DHT22;8691;50.828;4.700;2022-10-16T08:58:00;25.50;98.60
17152;DHT22;8691;50.828;4.700;2022-10-16T09:00:28;25.60;98.40
17152;DHT22;8691;50.828;4.700;2022-10-16T09:03:00;25.60;97.00
17152;DHT22;8691;50.828;4.700;2022-10-16T09:05:42;25.40;96.90
17152;DHT22;8691;50.828;4.700;2022-10-16T09:10:56;25.20;97.60
17152;DHT22;8691;50.828;4.700;2022-10-16T09:13:39;25.40;97.20
17152;DHT22;8691;50.828;4.700;2022-10-16T09:19:09;24.90;97.60
17152;DHT22;8691;50.828;4.700;2022-10-16T09:21:13;24.90;97.60
17152;DHT22;8691;50.828;4.700;2022-10-16T09:23:36;25.20;97.10
17152;DHT22;8691;50.828;4.700;2022-10-16T09:26:03;25.50;96.90
17152;DHT22;8691;50.828;4.700;2022-10-16T09:28:30;26.00;95.80
17152;DHT22;8691;50.828;4.700;2022-10-16T09:30:57;25.80;96.40
17152;DHT22;8691;50.828;4.700;2022-10-16T09:33:25;25.80;96.30
17152;DHT22;8691;50.828;4.700;2022-10-16T09:35:51;26.10;95.20
17152;DHT22;8691;50.828;4.700;2022-10-16T09:38:24;26.00;95.40
17152;DHT22;8691;50.828;4.700;2022-10-16T09:40:51;25.70;95.40
17152;DHT22;8691;50.828;4.700;2022-10-16T09:46:01;25.50;96.20
17152;DHT22;8691;50.828;4.700;2022-10-16T09:48:37;25.70;96.10
17152;DHT22;8691;50.828;4.700;2022-10-16T09:51:04;25.70;96.10
17152;DHT22;8691;50.828;4.700;2022-10-16T09:53:40;25.80;95.20
17152;DHT22;8691;50.828;4.700;2022-10-16T09:56:06;25.70;95.50
17152;DHT22;8691;50.828;4.700;2022-10-16T09:58:34;25.50;95.40
17152;DHT22;8691;50.828;4.700;2022-10-16T10:01:00;25.40;95.40
17152;DHT22;8691;50.828;4.700;2022-10-16T10:03:37;25.50;94.80
17152;DHT22;8691;50.828;4.700;2022-10-16T10:06:07;25.60;94.80
17152;DHT22;8691;50.828;4.700;2022-10-16T10:08:31;25.40;95.00
17152;DHT22;8691;50.828;4.700;2022-10-16T10:10:58;25.30;95.10
17152;DHT22;8691;50.828;4.700;2022-10-16T10:13:25;24.80;96.00
17152;DHT22;8691;50.828;4.700;2022-10-16T10:15:52;25.00;95.50
17152;DHT22;8691;50.828;4.700;2022-10-16T10:18:19;25.20;95.60
17152;DHT22;8691;50.828;4.700;2022-10-16T10:20:45;25.20;95.30
17152;DHT22;8691;50.828;4.700;2022-10-16T10:23:22;25.40;95.70
17152;DHT22;8691;50.828;4.700;2022-10-16T10:26:13;25.50;94.10
17152;DHT22;8691;50.828;4.700;2022-10-16T10:36:53;24.10;96.10
17152;DHT22;8691;50.828;4.700;2022-10-16T10:39:32;23.10;97.90
17152;DHT22;8691;50.828;4.700;2022-10-16T10:47:24;22.10;98.80
17152;DHT22;8691;50.828;4.700;2022-10-16T10:52:58;21.30;99.90
17152;DHT22;8691;50.828;4.700;2022-10-16T10:55:31;21.10;99.90
17152;DHT22;8691;50.828;4.700;2022-10-16T10:58:13;21.10;99.90
17152;DHT22;8691;50.828;4.700;2022-10-16T11:06:18;21.30;99.90
17152;DHT22;8691;50.828;4.700;2022-10-16T11:08:52;21.10;99.90
17152;DHT22;8691;50.828;4.700;2022-10-16T11:11:36;21.00;99.90
17152;DHT22;8691;50.828;4.700;2022-10-16T11:14:24;20.90;99.90
17152;DHT22;8691;50.828;4.700;2022-10-16T11:16:53;20.90;99.90
17152;DHT22;8691;50.828;4.700;2022-10-16T11:21:56;21.00;99.90
17152;DHT22;8691;50.828;4.700;2022-10-16T11:24:28;21.20;99.90
17152;DHT22;8691;50.828;4.700;2022-10-16T11:26:51;21.10;99.90
17152;DHT22;8691;50.828;4.700;2022-10-16T11:29:27;21.20;99.90
17152;DHT22;8691;50.828;4.700;2022-10-16T11:31:58;21.20;99.90
17152;DHT22;8691;50.828;4.700;2022-10-16T11:39:27;21.20;99.90
17152;DHT22;8691;50.828;4.700;2022-10-16T11:42:09;21.10;99.90
17152;DHT22;8691;50.828;4.700;2022-10-16T11:50:33;21.60;99.90
17152;DHT22;8691;50.828;4.700;2022-10-16T11:53:05;21.50;99.90
17152;DHT22;8691;50.828;4.700;2022-10-16T11:55:32;21.20;99.90
17152;DHT22;8691;50.828;4.700;2022-10-16T11:57:59;21.20;99.90
17152;DHT22;8691;50.828;4.700;2022-10-16T12:00:28;21.20;99.90
17152;DHT22;8691;50.828;4.700;2022-10-16T12:03:18;21.20;99.90
17152;DHT22;8691;50.828;4.700;2022-10-16T12:08:31;21.40;99.90
17152;DHT22;8691;50.828;4.700;2022-10-16T12:11:06;21.60;99.90
17152;DHT22;8691;50.828;4.700;2022-10-16T12:13:33;21.70;99.90
17152;DHT22;8691;50.828;4.700;2022-10-16T12:18:40;22.30;99.90
17152;DHT22;8691;50.828;4.700;2022-10-16T12:21:06;22.50;99.90
17152;DHT22;8691;50.828;4.700;2022-10-16T12:23:36;22.70;99.20
17152;DHT22;8691;50.828;4.700;2022-10-16T12:26:00;22.70;98.30
17152;DHT22;8691;50.828;4.700;2022-10-16T12:28:27;22.80;98.40
17152;DHT22;8691;50.828;4.700;2022-10-16T12:30:54;22.80;97.90
17152;DHT22;8691;50.828;4.700;2022-10-16T12:33:40;22.70;98.50
17152;DHT22;8691;50.828;4.700;2022-10-16T12:36:07;22.60;98.50
17152;DHT22;8691;50.828;4.700;2022-10-16T12:38:48;22.50;98.40
17152;DHT22;8691;50.828;4.700;2022-10-16T12:41:24;22.50;98.40
17152;DHT22;8691;50.828;4.700;2022-10-16T12:43:42;22.40;98.90
17152;DHT22;8691;50.828;4.700;2022-10-16T12:48:41;22.20;99.30
17152;DHT22;8691;50.828;4.700;2022-10-16T12:51:23;22.10;99.50
17152;DHT22;8691;50.828;4.700;2022-10-16T12:56:47;22.20;99.80
17152;DHT22;8691;50.828;4.700;2022-10-16T12:59:15;22.10;99.70
17152;DHT22;8691;50.828;4.700;2022-10-16T13:18:14;21.60;99.90
17152;DHT22;8691;50.828;4.700;2022-10-16T13:26:25;22.00;99.90
17152;DHT22;8691;50.828;4.700;2022-10-16T13:28:49;21.90;99.90
17152;DHT22;8691;50.828;4.700;2022-10-16T13:31:20;21.90;99.90
17152;DHT22;8691;50.828;4.700;2022-10-16T13:33:47;21.50;99.90
17152;DHT22;8691;50.828;4.700;2022-10-16T13:36:26;21.50;99.90
17152;DHT22;8691;50.828;4.700;2022-10-16T13:41:28;21.40;99.90
17152;DHT22;8691;50.828;4.700;2022-10-16T13:43:55;21.60;99.90
17152;DHT22;8691;50.828;4.700;2022-10-16T13:46:23;21.70;99.90
17152;DHT22;8691;50.828;4.700;2022-10-16T13:49:02;22.10;99.90
17152;DHT22;8691;50.828;4.700;2022-10-16T13:51:28;22.50;99.80
17152;DHT22;8691;50.828;4.700;2022-10-16T13:53:56;22.40;99.20
17152;DHT22;8691;50.828;4.700;2022-10-16T13:56:22;22.40;99.20
17152;DHT22;8691;50.828;4.700;2022-10-16T13:59:02;22.00;99.90
17152;DHT22;8691;50.828;4.700;2022-10-16T14:01:26;21.60;99.90
17152;DHT22;8691;50.828;4.700;2022-10-16T14:03:51;21.20;99.90
17152;DHT22;8691;50.828;4.700;2022-10-16T14:06:21;21.10;99.90
17152;DHT22;8691;50.828;4.700;2022-10-16T14:09:21;21.00;99.90
17152;DHT22;8691;50.828;4.700;2022-10-16T14:11:23;21.00;99.90
17152;DHT22;8691;50.828;4.700;2022-10-16T14:13:50;21.00;99.90
17152;DHT22;8691;50.828;4.700;2022-10-16T14:16:21;20.90;99.90
17152;DHT22;8691;50.828;4.700;2022-10-16T14:18:51;20.90;99.90
17152;DHT22;8691;50.828;4.700;2022-10-16T14:21:14;20.80;99.90
17152;DHT22;8691;50.828;4.700;2022-10-16T14:23:40;20.60;99.90
17152;DHT22;8691;50.828;4.700;2022-10-16T14:26:15;20.70;99.90
17152;DHT22;8691;50.828;4.700;2022-10-16T14:28:37;20.60;99.90
17152;DHT22;8691;50.828;4.700;2022-10-16T14:31:28;20.70;99.90
17152;DHT22;8691;50.828;4.700;2022-10-16T14:33:33;20.60;99.90
17152;DHT22;8691;50.828;4.700;2022-10-16T14:36:11;20.80;99.90
17152;DHT22;8691;50.828;4.700;2022-10-16T14:38:38;20.80;99.90
17152;DHT22;8691;50.828;4.700;2022-10-16T14:41:05;20.70;99.90
17152;DHT22;8691;50.828;4.700;2022-10-16T14:43:41;20.80;99.90
17152;DHT22;8691;50.828;4.700;2022-10-16T14:46:13;20.80;99.90
17152;DHT22;8691;50.828;4.700;2022-10-16T14:48:44;20.80;99.90
17152;DHT22;8691;50.828;4.700;2022-10-16T14:51:09;20.80;99.90
17152;DHT22;8691;50.828;4.700;2022-10-16T14:53:35;20.80;99.90
17152;DHT22;8691;50.828;4.700;2022-10-16T14:56:05;20.70;99.90
17152;DHT22;8691;50.828;4.700;2022-10-16T14:58:28;20.50;99.90
17152;DHT22;8691;50.828;4.700;2022-10-16T15:00:55;20.50;99.90
17152;DHT22;8691;50.828;4.700;2022-10-16T15:03:22;20.30;99.90
17152;DHT22;8691;50.828;4.700;2022-10-16T15:05:48;20.20;99.90
17152;DHT22;8691;50.828;4.700;2022-10-16T15:08:15;20.10;99.90
17152;DHT22;8691;50.828;4.700;2022-10-16T15:10:43;20.10;99.90
17152;DHT22;8691;50.828;4.700;2022-10-16T15:13:13;20.10;99.90
17152;DHT22;8691;50.828;4.700;2022-10-16T15:15:43;20.00;99.90
17152;DHT22;8691;50.828;4.700;2022-10-16T15:18:10;19.90;99.90
17152;DHT22;8691;50.828;4.700;2022-10-16T15:20:38;19.90;99.90
17152;DHT22;8691;50.828;4.700;2022-10-16T15:23:04;19.80;99.90
17152;DHT22;8691;50.828;4.700;2022-10-16T15:25:35;19.90;99.90
17152;DHT22;8691;50.828;4.700;2022-10-16T15:28:01;19.80;99.90
17152;DHT22;8691;50.828;4.700;2022-10-16T15:30:27;19.90;99.90
17152;DHT22;8691;50.828;4.700;2022-10-16T15:32:54;19.80;99.90
17152;DHT22;8691;50.828;4.700;2022-10-16T15:35:22;19.70;99.90
17152;DHT22;8691;50.828;4.700;2022-10-16T15:37:48;19.60;99.90
17152;DHT22;8691;50.828;4.700;2022-10-16T15:40:16;19.50;99.90
17152;DHT22;8691;50.828;4.700;2022-10-16T15:42:42;19.50;99.90
17152;DHT22;8691;50.828;4.700;2022-10-16T15:45:09;19.40;99.90
17152;DHT22;8691;50.828;4.700;2022-10-16T15:47:37;19.20;99.90
17152;DHT22;8691;50.828;4.700;2022-10-16T15:50:04;19.20;99.90
17152;DHT22;8691;50.828;4.700;2022-10-16T15:52:30;19.20;99.90
17152;DHT22;8691;50.828;4.700;2022-10-16T15:54:58;19.10;99.90
17152;DHT22;8691;50.828;4.700;2022-10-16T15:57:27;18.90;99.90
17152;DHT22;8691;50.828;4.700;2022-10-16T15:59:52;18.90;99.90
17152;DHT22;8691;50.828;4.700;2022-10-16T16:02:19;18.80;99.90
17152;DHT22;8691;50.828;4.700;2022-10-16T16:04:45;18.70;99.90
17152;DHT22;8691;50.828;4.700;2022-10-16T16:07:12;18.50;99.90
17152;DHT22;8691;50.828;4.700;2022-10-16T16:09:39;18.50;99.90
17152;DHT22;8691;50.828;4.700;2022-10-16T16:12:06;18.40;99.90
17152;DHT22;8691;50.828;4.700;2022-10-16T16:14:32;18.40;99.90
17152;DHT22;8691;50.828;4.700;2022-10-16T16:16:59;18.40;99.90
17152;DHT22;8691;50.828;4.700;2022-10-16T16:19:26;18.30;99.90
17152;DHT22;8691;50.828;4.700;2022-10-16T16:21:53;18.30;99.90
17152;DHT22;8691;50.828;4.700;2022-10-16T16:24:21;18.20;99.90
17152;DHT22;8691;50.828;4.700;2022-10-16T16:26:48;18.10;99.90
17152;DHT22;8691;50.828;4.700;2022-10-16T16:29:15;18.00;99.90
17152;DHT22;8691;50.828;4.700;2022-10-16T16:31:42;18.00;99.90
17152;DHT22;8691;50.828;4.700;2022-10-16T16:34:09;17.90;99.90
17152;DHT22;8691;50.828;4.700;2022-10-16T16:36:35;17.90;99.90
17152;DHT22;8691;50.828;4.700;2022-10-16T16:39:02;17.90;99.90
17152;DHT22;8691;50.828;4.700;2022-10-16T16:41:29;17.90;99.90
17152;DHT22;8691;50.828;4.700;2022-10-16T16:44:01;17.80;99.90
17152;DHT22;8691;50.828;4.700;2022-10-16T16:46:23;17.80;99.90
17152;DHT22;8691;50.828;4.700;2022-10-16T16:48:50;17.70;99.90
17152;DHT22;8691;50.828;4.700;2022-10-16T16:51:17;17.70;99.90
17152;DHT22;8691;50.828;4.700;2022-10-16T16:53:45;17.60;99.90
17152;DHT22;8691;50.828;4.700;2022-10-16T16:56:12;17.50;99.90
17152;DHT22;8691;50.828;4.700;2022-10-16T16:58:38;17.50;99.90
17152;DHT22;8691;50.828;4.700;2022-10-16T17:01:05;17.50;99.90
17152;DHT22;8691;50.828;4.700;2022-10-16T17:03:34;17.40;99.90
17152;DHT22;8691;50.828;4.700;2022-10-16T17:06:00;17.40;99.90
17152;DHT22;8691;50.828;4.700;2022-10-16T17:08:26;17.50;99.90
17152;DHT22;8691;50.828;4.700;2022-10-16T17:10:53;17.50;99.90
17152;DHT22;8691;50.828;4.700;2022-10-16T17:13:21;17.60;99.90
17152;DHT22;8691;50.828;4.700;2022-10-16T17:15:47;17.50;99.90
17152;DHT22;8691;50.828;4.700;2022-10-16T17:18:15;17.40;99.90
17152;DHT22;8691;50.828;4.700;2022-10-16T17:20:42;17.40;99.90